createdAt,value
2022-11-26T00:00:28.030Z,4.80
2022-11-26T00:02:54.773Z,4.85
2022-11-26T00:05:22.474Z,5.13
2022-11-26T00:07:55.468Z,4.05
2022-11-26T00:12:50.205Z,4.28
2022-11-26T00:15:21.420Z,5.07
2022-11-26T00:17:49.602Z,4.32
2022-11-26T00:20:17.815Z,4.18
2022-11-26T00:22:55.999Z,3.70
2022-11-26T00:25:26.097Z,5.13
2022-11-26T00:27:54.176Z,5.10
2022-11-26T00:30:25.106Z,4.18
2022-11-26T00:32:52.682Z,4.18
2022-11-26T00:35:20.127Z,4.57
2022-11-26T00:37:55.211Z,4.28
2022-11-26T00:40:32.087Z,3.97
2022-11-26T00:43:01.905Z,4.00
2022-11-26T00:45:30.854Z,3.95
2022-11-26T00:47:57.400Z,3.95
2022-11-26T00:50:26.704Z,3.90
2022-11-26T00:52:55.257Z,3.58
2022-11-26T00:55:34.250Z,3.83
2022-11-26T00:58:01.072Z,4.60
2022-11-26T01:00:30.708Z,4.57
2022-11-26T01:02:58.191Z,5.43
2022-11-26T01:05:30.410Z,4.32
2022-11-26T01:08:00.206Z,4.53
2022-11-26T01:10:29.050Z,4.40
2022-11-26T01:12:56.449Z,4.70
2022-11-26T01:15:26.068Z,5.30
2022-11-26T01:17:52.988Z,4.80
2022-11-26T01:20:27.710Z,4.97
2022-11-26T01:22:55.950Z,4.82
2022-11-26T01:25:23.454Z,3.60
2022-11-26T01:27:50.050Z,3.50
2022-11-26T01:30:29.476Z,3.35
2022-11-26T01:32:56.066Z,3.70
2022-11-26T01:35:22.967Z,5.40
2022-11-26T01:37:49.847Z,3.95
2022-11-26T01:40:25.270Z,3.65
2022-11-26T01:43:10.071Z,4.25
2022-11-26T01:45:36.508Z,3.47
2022-11-26T01:48:39.223Z,4.82
2022-11-26T01:51:09.834Z,3.10
2022-11-26T01:53:55.070Z,4.32
2022-11-26T01:56:38.532Z,4.70
2022-11-26T01:59:12.494Z,4.82
2022-11-26T02:01:39.102Z,5.70
2022-11-26T02:04:28.000Z,5.80
2022-11-26T02:06:55.803Z,4.85
2022-11-26T02:09:24.758Z,6.43
2022-11-26T02:11:51.164Z,4.60
2022-11-26T02:14:25.841Z,4.53
2022-11-26T02:17:06.150Z,3.80
2022-11-26T02:19:50.194Z,4.20
2022-11-26T02:22:38.385Z,3.53
2022-11-26T02:25:43.376Z,4.13
2022-11-26T02:28:27.074Z,3.88
2022-11-26T02:31:38.397Z,3.60
2022-11-26T02:34:21.311Z,3.55
2022-11-26T02:36:50.996Z,4.60
2022-11-26T02:39:21.142Z,4.93
2022-11-26T02:41:54.392Z,3.65
2022-11-26T02:44:26.987Z,4.20
2022-11-26T02:47:06.123Z,3.95
2022-11-26T02:49:34.336Z,3.78
2022-11-26T02:52:04.709Z,3.88
2022-11-26T02:54:33.027Z,3.35
2022-11-26T02:57:01.969Z,3.65
2022-11-26T02:59:29.379Z,3.65
2022-11-26T03:02:30.814Z,4.70
2022-11-26T03:05:00.865Z,3.88
2022-11-26T03:07:29.961Z,2.97
2022-11-26T03:09:58.948Z,3.22
2022-11-26T03:12:26.251Z,5.45
2022-11-26T03:14:53.148Z,3.42
2022-11-26T03:17:20.938Z,3.92
2022-11-26T03:19:47.647Z,3.70
2022-11-26T03:22:15.057Z,4.00
2022-11-26T03:24:41.796Z,3.60
2022-11-26T03:27:08.427Z,4.65
2022-11-26T03:29:34.781Z,6.13
2022-11-26T03:32:01.252Z,3.67
2022-11-26T03:34:27.657Z,3.42
2022-11-26T03:36:53.985Z,4.05
2022-11-26T03:39:20.371Z,3.28
2022-11-26T03:41:46.734Z,4.97
2022-11-26T03:44:13.754Z,3.42
2022-11-26T03:46:40.261Z,4.47
2022-11-26T03:49:07.120Z,4.07
2022-11-26T03:51:33.660Z,3.20
2022-11-26T03:54:00.039Z,4.07
2022-11-26T03:56:26.368Z,3.65
2022-11-26T03:58:52.738Z,5.60
2022-11-26T04:01:19.249Z,4.70
2022-11-26T04:03:45.713Z,5.43
2022-11-26T04:06:12.197Z,3.90
2022-11-26T04:08:38.557Z,3.60
2022-11-26T04:11:06.091Z,4.40
2022-11-26T04:13:32.575Z,4.93
2022-11-26T04:15:58.989Z,4.60
2022-11-26T04:18:25.449Z,4.57
2022-11-26T04:20:53.472Z,4.50
2022-11-26T04:23:20.295Z,4.05
2022-11-26T04:25:46.869Z,2.90
2022-11-26T04:28:14.957Z,4.13
2022-11-26T04:30:42.150Z,3.78
2022-11-26T04:33:08.707Z,3.45
2022-11-26T04:35:35.068Z,3.38
2022-11-26T04:38:01.600Z,4.00
2022-11-26T04:40:27.934Z,4.68
2022-11-26T04:42:54.285Z,3.75
2022-11-26T04:45:20.692Z,4.25
2022-11-26T04:47:47.148Z,4.10
2022-11-26T04:50:13.609Z,3.45
2022-11-26T04:52:39.971Z,3.10
2022-11-26T04:55:06.451Z,3.47
2022-11-26T04:57:32.871Z,4.22
2022-11-26T04:59:59.190Z,4.55
2022-11-26T05:02:25.670Z,4.70
2022-11-26T05:04:52.159Z,4.35
2022-11-26T05:07:18.663Z,3.67
2022-11-26T05:09:45.103Z,4.38
2022-11-26T05:12:12.610Z,3.92
2022-11-26T05:14:39.119Z,4.03
2022-11-26T05:17:05.779Z,3.47
2022-11-26T05:19:34.076Z,3.88
2022-11-26T05:22:00.477Z,3.10
2022-11-26T05:24:26.915Z,3.78
2022-11-26T05:26:56.893Z,3.78
2022-11-26T05:29:24.238Z,3.25
2022-11-26T05:31:50.818Z,3.67
2022-11-26T05:34:18.670Z,4.13
2022-11-26T05:36:45.083Z,4.25
2022-11-26T05:39:11.631Z,3.80
2022-11-26T05:41:38.163Z,3.40
2022-11-26T05:44:04.905Z,4.95
2022-11-26T05:46:31.324Z,3.47
2022-11-26T05:48:57.748Z,4.38
2022-11-26T05:51:24.160Z,3.72
2022-11-26T05:53:50.545Z,3.55
2022-11-26T05:56:16.976Z,3.00
2022-11-26T05:58:43.620Z,3.88
2022-11-26T06:01:10.689Z,4.07
2022-11-26T06:03:37.660Z,4.25
2022-11-26T06:06:05.051Z,6.28
2022-11-26T06:08:31.625Z,6.70
2022-11-26T06:10:58.020Z,7.47
2022-11-26T06:13:24.822Z,5.95
2022-11-26T06:15:51.621Z,5.22
2022-11-26T06:18:18.122Z,5.93
2022-11-26T06:20:44.958Z,5.90
2022-11-26T06:23:11.684Z,5.28
2022-11-26T06:25:41.789Z,4.55
2022-11-26T06:28:08.219Z,4.18
2022-11-26T06:30:34.555Z,4.90
2022-11-26T06:33:00.976Z,6.65
2022-11-26T06:35:27.477Z,5.53
2022-11-26T06:37:53.848Z,4.72
2022-11-26T06:40:20.713Z,5.57
2022-11-26T06:42:51.684Z,4.80
2022-11-26T06:45:18.996Z,5.65
2022-11-26T06:47:47.278Z,4.95
2022-11-26T06:50:15.035Z,6.03
2022-11-26T06:52:41.479Z,5.32
2022-11-26T06:55:08.400Z,5.43
2022-11-26T06:57:34.825Z,4.85
2022-11-26T07:00:01.232Z,4.00
2022-11-26T07:02:27.845Z,4.28
2022-11-26T07:04:54.360Z,5.40
2022-11-26T07:07:20.790Z,5.38
2022-11-26T07:09:47.288Z,4.55
2022-11-26T07:12:13.739Z,4.30
2022-11-26T07:14:40.642Z,4.25
2022-11-26T07:17:07.297Z,5.18
2022-11-26T07:19:33.627Z,4.65
2022-11-26T07:21:59.964Z,5.07
2022-11-26T07:24:26.340Z,4.15
2022-11-26T07:26:54.092Z,5.03
2022-11-26T07:29:20.520Z,4.30
2022-11-26T07:31:46.958Z,5.03
2022-11-26T07:34:13.494Z,5.07
2022-11-26T07:36:43.005Z,4.63
2022-11-26T07:39:11.526Z,4.70
2022-11-26T07:41:38.793Z,4.80
2022-11-26T07:44:05.335Z,5.80
2022-11-26T07:46:32.020Z,5.10
2022-11-26T07:48:58.522Z,5.25
2022-11-26T07:51:27.843Z,4.57
2022-11-26T07:53:55.019Z,4.82
2022-11-26T07:56:21.779Z,5.65
2022-11-26T07:58:48.569Z,6.32
2022-11-26T08:01:17.928Z,5.00
2022-11-26T08:03:46.722Z,5.20
2022-11-26T08:06:17.115Z,4.78
2022-11-26T08:08:43.650Z,6.82
2022-11-26T08:11:16.355Z,5.90
2022-11-26T08:13:44.162Z,6.85
2022-11-26T08:16:11.182Z,5.90
2022-11-26T08:18:37.918Z,6.35
2022-11-26T08:21:04.831Z,6.07
2022-11-26T08:23:31.827Z,6.47
2022-11-26T08:26:21.666Z,7.47
2022-11-26T08:28:46.501Z,8.50
2022-11-26T08:31:14.904Z,7.80
2022-11-26T08:33:41.508Z,9.00
2022-11-26T08:36:09.039Z,9.02
2022-11-26T08:38:36.647Z,9.35
2022-11-26T08:41:05.879Z,9.65
2022-11-26T08:43:58.745Z,9.27
2022-11-26T08:46:21.781Z,9.55
2022-11-26T08:48:48.185Z,8.15
2022-11-26T08:51:14.580Z,7.70
2022-11-26T08:53:40.934Z,9.43
2022-11-26T08:56:10.134Z,9.77
2022-11-26T08:58:39.378Z,8.50
2022-11-26T09:01:11.080Z,8.25
2022-11-26T09:03:38.287Z,7.05
2022-11-26T09:06:06.832Z,7.38
2022-11-26T09:08:44.884Z,7.22
2022-11-26T09:11:12.100Z,7.78
2022-11-26T09:13:38.447Z,7.25
2022-11-26T09:16:05.335Z,6.45
2022-11-26T09:18:31.735Z,6.95
2022-11-26T09:21:02.350Z,6.25
2022-11-26T09:23:29.014Z,8.32
2022-11-26T09:25:55.386Z,7.28
2022-11-26T09:28:21.735Z,7.55
2022-11-26T09:30:48.118Z,8.18
2022-11-26T09:33:14.844Z,7.28
2022-11-26T09:35:41.200Z,6.70
2022-11-26T09:38:07.886Z,6.65
2022-11-26T09:40:54.018Z,6.38
2022-11-26T09:43:44.236Z,6.97
2022-11-26T09:46:13.691Z,6.72
2022-11-26T09:48:41.000Z,8.35
2022-11-26T09:51:13.522Z,7.00
2022-11-26T09:53:47.143Z,6.72
2022-11-26T09:56:19.884Z,7.43
2022-11-26T09:58:57.535Z,6.15
2022-11-26T10:01:25.094Z,5.50
2022-11-26T10:03:52.408Z,6.22
2022-11-26T10:06:41.348Z,5.70
2022-11-26T10:09:21.305Z,6.13
2022-11-26T10:12:24.623Z,5.97
2022-11-26T10:15:14.075Z,7.78
2022-11-26T10:18:17.199Z,7.63
2022-11-26T10:20:51.892Z,7.70
2022-11-26T10:23:29.210Z,6.78
2022-11-26T10:26:12.078Z,7.55
2022-11-26T10:28:44.711Z,7.10
2022-11-26T10:31:32.784Z,7.57
2022-11-26T10:34:03.731Z,7.10
2022-11-26T10:36:37.340Z,7.10
2022-11-26T10:39:04.120Z,9.18
2022-11-26T10:41:35.240Z,8.88
2022-11-26T10:44:33.594Z,10.02
2022-11-26T10:47:19.804Z,9.57
2022-11-26T10:49:46.206Z,10.00
2022-11-26T10:52:17.405Z,9.00
2022-11-26T10:54:45.065Z,8.93
2022-11-26T10:57:17.137Z,9.02
2022-11-26T10:59:43.553Z,9.43
2022-11-26T11:02:32.735Z,9.00
2022-11-26T11:05:03.371Z,8.55
2022-11-26T11:07:34.299Z,7.60
2022-11-26T11:10:08.050Z,7.18
2022-11-26T11:12:40.079Z,8.75
2022-11-26T11:15:27.694Z,6.93
2022-11-26T11:18:19.466Z,7.88
2022-11-26T11:20:55.755Z,6.88
2022-11-26T11:23:52.184Z,7.07
2022-11-26T11:26:21.256Z,7.18
2022-11-26T11:28:50.903Z,8.02
2022-11-26T11:31:20.935Z,8.55
2022-11-26T11:33:48.487Z,8.70
2022-11-26T11:36:17.513Z,8.57
2022-11-26T11:39:00.568Z,7.80
2022-11-26T11:41:39.494Z,7.15
2022-11-26T11:44:14.976Z,5.30
2022-11-26T11:47:03.619Z,5.65
2022-11-26T11:49:44.593Z,5.03
2022-11-26T11:52:32.506Z,5.20
2022-11-26T11:55:10.257Z,4.93
2022-11-26T11:57:51.474Z,5.38
2022-11-26T12:00:21.443Z,6.60
2022-11-26T12:03:00.978Z,5.80
2022-11-26T12:05:34.034Z,5.55
2022-11-26T12:11:11.920Z,6.72
2022-11-26T12:13:47.621Z,9.73
2022-11-26T12:16:16.735Z,9.60
2022-11-26T12:18:56.009Z,8.82
2022-11-26T12:21:46.718Z,9.82
2022-11-26T12:24:16.734Z,7.95
2022-11-26T12:26:50.803Z,6.72
2022-11-26T12:29:35.695Z,6.68
2022-11-26T12:32:36.040Z,6.18
2022-11-26T12:35:29.346Z,5.25
2022-11-26T12:38:13.460Z,5.30
2022-11-26T12:40:53.937Z,5.13
2022-11-26T12:43:29.573Z,5.10
2022-11-26T12:46:08.749Z,5.10
2022-11-26T12:48:42.791Z,4.90
2022-11-26T12:51:30.911Z,5.60
2022-11-26T12:54:22.015Z,6.25
2022-11-26T12:56:57.244Z,5.68
2022-11-26T12:59:31.470Z,6.72
2022-11-26T13:01:58.687Z,5.97
2022-11-26T13:04:43.300Z,6.82
2022-11-26T13:07:22.757Z,5.50
2022-11-26T13:10:10.241Z,6.57
2022-11-26T13:13:19.388Z,6.68
2022-11-26T13:16:02.597Z,5.35
2022-11-26T13:18:43.277Z,6.15
2022-11-26T13:21:09.677Z,6.95
2022-11-26T13:23:56.985Z,6.45
2022-11-26T13:26:41.451Z,7.68
2022-11-26T13:29:29.717Z,5.35
2022-11-26T13:32:25.917Z,5.28
2022-11-26T13:35:03.824Z,4.70
2022-11-26T13:37:54.429Z,5.38
2022-11-26T13:40:26.808Z,4.20
2022-11-26T13:43:18.111Z,5.30
2022-11-26T13:46:04.618Z,5.10
2022-11-26T13:48:36.598Z,5.47
2022-11-26T13:51:13.471Z,6.35
2022-11-26T13:53:50.245Z,5.68
2022-11-26T13:56:23.764Z,5.13
2022-11-26T13:58:57.873Z,5.45
2022-11-26T14:01:40.885Z,7.00
2022-11-26T14:04:15.539Z,8.95
2022-11-26T14:09:47.497Z,9.80
2022-11-26T14:12:15.381Z,25.17
2022-11-26T14:14:43.206Z,16.52
2022-11-26T14:17:22.089Z,15.57
2022-11-26T14:19:48.452Z,12.10
2022-11-26T14:22:21.147Z,10.77
2022-11-26T14:24:47.598Z,10.40
2022-11-26T14:27:18.305Z,10.52
2022-11-26T14:29:54.338Z,9.20
2022-11-26T14:32:24.550Z,9.18
2022-11-26T14:34:57.809Z,9.15
2022-11-26T14:37:27.202Z,9.63
2022-11-26T14:40:03.212Z,9.95
2022-11-26T14:42:29.886Z,6.93
2022-11-26T14:45:16.601Z,6.60
2022-11-26T14:47:49.819Z,5.35
2022-11-26T14:50:19.244Z,6.35
2022-11-26T14:52:46.075Z,5.72
2022-11-26T14:55:15.565Z,5.22
2022-11-26T14:57:45.179Z,4.25
2022-11-26T15:00:16.027Z,5.65
2022-11-26T15:02:45.658Z,5.78
2022-11-26T15:05:17.877Z,5.22
2022-11-26T15:07:45.346Z,4.13
2022-11-26T15:10:14.762Z,4.10
2022-11-26T15:12:42.824Z,4.57
2022-11-26T15:15:14.451Z,3.88
2022-11-26T15:17:44.699Z,3.25
2022-11-26T15:20:16.323Z,4.10
2022-11-26T15:23:14.643Z,3.30
2022-11-26T15:25:50.054Z,3.55
2022-11-26T15:28:19.039Z,3.85
2022-11-26T15:31:03.121Z,4.30
2022-11-26T15:33:33.556Z,5.30
2022-11-26T15:36:00.254Z,3.88
2022-11-26T15:38:29.667Z,5.50
2022-11-26T15:41:02.011Z,3.40
2022-11-26T15:43:33.592Z,2.85
2022-11-26T15:46:11.492Z,3.75
2022-11-26T15:48:52.366Z,3.40
2022-11-26T15:51:38.549Z,3.55
2022-11-26T15:54:19.203Z,3.25
2022-11-26T15:56:50.063Z,4.10
2022-11-26T15:59:17.354Z,4.70
2022-11-26T16:01:45.919Z,4.18
2022-11-26T16:04:38.225Z,3.88
2022-11-26T16:07:32.414Z,3.67
2022-11-26T16:10:19.128Z,3.88
2022-11-26T16:13:07.167Z,5.10
2022-11-26T16:15:34.484Z,5.10
2022-11-26T16:18:04.209Z,6.18
2022-11-26T16:20:30.640Z,5.65
2022-11-26T16:23:00.252Z,5.43
2022-11-26T16:25:29.777Z,4.78
2022-11-26T16:28:17.541Z,4.75
2022-11-26T16:30:44.097Z,4.60
2022-11-26T16:33:11.017Z,3.83
2022-11-26T16:35:46.553Z,3.65
2022-11-26T16:38:21.797Z,3.65
2022-11-26T16:40:49.021Z,5.68
2022-11-26T16:43:15.683Z,4.95
2022-11-26T16:45:42.124Z,5.68
2022-11-26T16:48:26.192Z,5.53
2022-11-26T16:50:54.928Z,6.60
2022-11-26T16:53:21.637Z,6.03
2022-11-26T16:55:49.913Z,4.38
2022-11-26T16:58:26.178Z,3.95
2022-11-26T17:00:53.319Z,3.63
2022-11-26T17:03:22.458Z,3.90
2022-11-26T17:05:51.435Z,4.78
2022-11-26T17:08:18.273Z,3.72
2022-11-26T17:10:50.726Z,5.72
2022-11-26T17:13:17.654Z,4.88
2022-11-26T17:15:44.280Z,3.85
2022-11-26T17:18:22.335Z,2.75
2022-11-26T17:20:49.465Z,4.97
2022-11-26T17:23:16.400Z,4.45
2022-11-26T17:25:44.708Z,3.95
2022-11-26T17:28:13.134Z,3.80
2022-11-26T17:30:40.545Z,4.05
2022-11-26T17:33:08.275Z,4.70
2022-11-26T17:35:34.957Z,3.47
2022-11-26T17:38:01.598Z,4.25
2022-11-26T17:40:29.542Z,4.25
2022-11-26T17:42:56.331Z,4.97
2022-11-26T17:45:22.983Z,4.55
2022-11-26T17:47:49.562Z,4.85
2022-11-26T17:50:23.263Z,4.20
2022-11-26T17:52:50.005Z,4.22
2022-11-26T17:55:18.057Z,4.72
2022-11-26T17:57:44.609Z,4.75
2022-11-26T18:00:21.098Z,4.18
2022-11-26T18:02:47.910Z,5.43
2022-11-26T18:05:14.683Z,5.18
2022-11-26T18:07:41.566Z,5.05
2022-11-26T18:10:13.212Z,4.53
2022-11-26T18:12:40.121Z,6.25
2022-11-26T18:15:07.227Z,4.80
2022-11-26T18:17:34.119Z,5.00
2022-11-26T18:20:00.615Z,6.90
2022-11-26T18:22:28.009Z,5.97
2022-11-26T18:24:56.873Z,5.82
2022-11-26T18:27:26.177Z,5.85
2022-11-26T18:29:52.622Z,5.40
2022-11-26T18:32:19.155Z,6.30
2022-11-26T18:34:45.769Z,6.88
2022-11-26T18:37:12.377Z,6.88
2022-11-26T18:39:39.186Z,6.80
2022-11-26T18:42:35.418Z,6.00
2022-11-26T18:44:52.592Z,6.65
2022-11-26T18:47:18.935Z,7.68
2022-11-26T18:49:47.632Z,6.15
2022-11-26T18:52:14.365Z,5.88
2022-11-26T18:54:40.826Z,5.70
2022-11-26T18:57:07.164Z,6.15
2022-11-26T18:59:33.606Z,6.10
2022-11-26T19:02:00.205Z,8.00
2022-11-26T19:04:26.650Z,6.50
2022-11-26T19:06:53.061Z,6.93
2022-11-26T19:09:20.538Z,7.10
2022-11-26T19:11:48.003Z,7.88
2022-11-26T19:14:16.926Z,7.72
2022-11-26T19:16:43.890Z,7.03
2022-11-26T19:19:10.731Z,7.43
2022-11-26T19:21:37.135Z,8.40
2022-11-26T19:24:06.885Z,7.53
2022-11-26T19:26:33.767Z,8.40
2022-11-26T19:29:05.055Z,8.00
2022-11-26T19:31:36.280Z,7.22
2022-11-26T19:34:08.868Z,8.10
2022-11-26T19:36:36.595Z,7.88
2022-11-26T19:39:04.933Z,8.98
2022-11-26T19:41:31.722Z,7.13
2022-11-26T19:44:00.420Z,7.20
2022-11-26T19:46:27.867Z,8.43
2022-11-26T19:48:55.404Z,7.35
2022-11-26T19:51:23.835Z,8.73
2022-11-26T19:53:51.834Z,9.00
2022-11-26T19:56:24.329Z,9.18
2022-11-26T19:58:53.656Z,9.00
2022-11-26T20:01:21.279Z,9.40
2022-11-26T20:03:47.796Z,9.10
2022-11-26T20:06:20.269Z,11.00
2022-11-26T20:08:48.069Z,10.93
2022-11-26T20:11:16.320Z,11.43
2022-11-26T20:13:44.309Z,11.23
2022-11-26T20:16:14.043Z,9.18
2022-11-26T20:18:41.346Z,9.68
2022-11-26T20:21:10.797Z,9.43
2022-11-26T20:23:38.538Z,10.48
2022-11-26T20:26:14.435Z,8.77
2022-11-26T20:28:41.112Z,12.15
2022-11-26T20:31:07.604Z,12.57
2022-11-26T20:33:35.246Z,11.68
2022-11-26T20:36:08.787Z,12.82
2022-11-26T20:38:35.517Z,12.93
2022-11-26T20:41:09.769Z,12.52
2022-11-26T20:43:36.956Z,11.88
2022-11-26T20:46:05.621Z,12.00
2022-11-26T20:48:34.175Z,12.50
2022-11-26T20:51:02.777Z,12.07
2022-11-26T20:53:30.095Z,12.68
2022-11-26T20:55:57.066Z,15.45
2022-11-26T20:58:25.431Z,13.38
2022-11-26T21:00:54.305Z,14.20
2022-11-26T21:03:22.669Z,12.18
2022-11-26T21:05:49.779Z,12.27
2022-11-26T21:08:17.272Z,12.73
2022-11-26T21:10:43.972Z,13.63
2022-11-26T21:13:13.666Z,12.70
2022-11-26T21:15:42.203Z,13.00
2022-11-26T21:18:09.546Z,10.95
2022-11-26T21:20:41.023Z,11.43
2022-11-26T21:23:09.039Z,12.77
2022-11-26T21:25:38.227Z,11.18
2022-11-26T21:28:06.604Z,12.50
2022-11-26T21:30:35.238Z,12.00
2022-11-26T21:33:08.730Z,10.25
2022-11-26T21:38:02.241Z,10.55
2022-11-26T21:40:29.053Z,10.82
2022-11-26T21:42:55.604Z,11.02
2022-11-26T21:45:22.591Z,11.18
2022-11-26T21:47:51.049Z,11.13
2022-11-26T21:50:18.716Z,11.35
2022-11-26T21:52:45.290Z,11.35
2022-11-26T21:55:12.028Z,11.02
2022-11-26T21:57:38.352Z,11.73
2022-11-26T22:00:05.453Z,12.13
2022-11-26T22:02:31.939Z,13.20
2022-11-26T22:04:58.413Z,12.70
2022-11-26T22:07:24.991Z,13.02
2022-11-26T22:09:51.896Z,12.57
2022-11-26T22:12:18.205Z,12.30
2022-11-26T22:14:44.606Z,13.30
2022-11-26T22:17:10.952Z,11.85
2022-11-26T22:19:38.045Z,12.20
2022-11-26T22:22:04.724Z,13.13
2022-11-26T22:24:31.244Z,11.40
2022-11-26T22:27:01.738Z,12.25
2022-11-26T22:29:30.456Z,11.57
2022-11-26T22:31:56.988Z,11.75
2022-11-26T22:34:24.477Z,12.75
2022-11-26T22:36:50.905Z,11.55
2022-11-26T22:39:18.275Z,12.85
2022-11-26T22:41:46.421Z,11.98
2022-11-26T22:44:14.178Z,12.77
2022-11-26T22:46:40.667Z,11.93
2022-11-26T22:49:10.734Z,11.35
2022-11-26T22:51:37.174Z,12.38
2022-11-26T22:54:09.385Z,14.45
2022-11-26T22:56:37.648Z,11.95
2022-11-26T22:59:05.377Z,12.95
2022-11-26T23:01:33.668Z,11.30
2022-11-26T23:04:01.901Z,12.52
2022-11-26T23:06:30.208Z,10.85
2022-11-26T23:08:58.483Z,11.55
2022-11-26T23:11:33.478Z,14.13
2022-11-26T23:14:01.940Z,12.20
2022-11-26T23:16:28.584Z,12.07
2022-11-26T23:18:56.995Z,12.35
2022-11-26T23:21:29.186Z,11.32
2022-11-26T23:23:56.146Z,12.18
2022-11-26T23:26:28.877Z,13.15
2022-11-26T23:28:57.252Z,12.73
2022-11-26T23:31:26.513Z,11.00
2022-11-26T23:33:53.528Z,11.80
2022-11-26T23:36:21.527Z,12.18
2022-11-26T23:38:48.011Z,11.45
2022-11-26T23:41:15.183Z,13.75
2022-11-26T23:43:42.198Z,14.13
2022-11-26T23:46:20.958Z,12.25
2022-11-26T23:48:48.267Z,12.15
2022-11-26T23:51:23.847Z,12.15
2022-11-26T23:53:50.885Z,11.82
2022-11-26T23:56:23.138Z,12.18
2022-11-26T23:58:50.857Z,10.20
